Time;durP1;ratioP1;P1;durP2;ratioP2;P2;SDS_P1;SDS_P2;PMS_P1;PMS_P2;Temp;Humidity;BMP_temperature;BMP_pressure;BME280_temperature;BME280_humidity;BME280_pressure;Samples;Min_cycle;Max_cycle;Signal;HPM_P1;HPM_P2
2021/07/05 00:00:14;;;;;;;5.50;5.00;;;;;;;18.86;85.10;100992.75;4844762;29;20017;-83
2021/07/05 00:02:41;;;;;;;6.07;4.95;;;;;;;18.79;85.11;100979.28;4828881;29;20086;-84
2021/07/05 00:05:08;;;;;;;5.68;5.18;;;;;;;18.00;84.98;100857.56;4830009;29;20023;-83
2021/07/05 00:07:34;;;;;;;5.63;5.13;;;;;;;18.35;85.14;100927.34;4844684;29;20034;-84
2021/07/05 00:10:00;;;;;;;8.57;5.30;;;;;;;18.14;85.11;100882.56;4844171;29;20019;-84
2021/07/05 00:12:27;;;;;;;6.15;5.13;;;;;;;18.23;85.15;100900.16;4845454;29;20022;-84
2021/07/05 00:14:53;;;;;;;5.50;4.90;;;;;;;18.08;85.21;100875.41;4816607;29;20027;-84
2021/07/05 00:17:18;;;;;;;5.65;5.10;;;;;;;18.30;85.42;100905.44;4846252;29;20097;-84
2021/07/05 00:19:44;;;;;;;5.90;5.30;;;;;;;18.13;85.35;100885.56;4830314;29;20027;-83
2021/07/05 00:27:24;;;;;;;5.97;5.47;;;;;;;18.56;85.21;100953.00;5468684;24;20080;-83
2021/07/05 00:29:50;;;;;;;6.70;5.45;;;;;;;18.42;85.35;100932.63;4850059;29;20423;-83
2021/07/05 00:32:16;;;;;;;5.82;5.22;;;;;;;18.01;85.27;100855.66;4864032;29;20017;-83
2021/07/05 00:34:42;;;;;;;6.38;5.50;;;;;;;17.99;85.20;100855.13;4865482;29;20013;-84
2021/07/05 00:37:08;;;;;;;7.63;5.15;;;;;;;18.00;85.27;100840.41;4864270;29;20075;-83
2021/07/05 00:39:33;;;;;;;7.60;5.47;;;;;;;17.96;85.22;100837.38;4864916;29;20102;-84
2021/07/05 00:42:02;;;;;;;6.70;5.30;;;;;;;18.37;84.84;100897.94;4866153;29;20017;-84
2021/07/05 00:44:28;;;;;;;5.63;4.97;;;;;;;18.23;85.01;100875.66;4863872;29;20037;-83
2021/07/05 00:46:54;;;;;;;5.95;5.45;;;;;;;18.31;84.94;100891.59;4863364;29;20054;-84
2021/07/05 00:49:22;;;;;;;4.95;4.53;;;;;;;18.88;85.02;100974.25;4865819;29;20134;-83
2021/07/05 00:51:48;;;;;;;5.88;5.07;;;;;;;18.25;85.02;100878.97;4864463;29;20173;-84
2021/07/05 00:54:15;;;;;;;5.55;5.00;;;;;;;18.26;84.93;100882.50;4864421;29;20101;-84
2021/07/05 00:56:41;;;;;;;5.68;5.10;;;;;;;18.35;84.76;100891.09;4865337;29;20022;-83
2021/07/05 00:59:08;;;;;;;5.95;5.20;;;;;;;18.22;84.89;100874.00;4864875;29;20017;-83
2021/07/05 01:01:34;;;;;;;6.80;5.80;;;;;;;18.25;84.79;100875.41;4863304;29;20022;-84
2021/07/05 01:04:01;;;;;;;8.00;5.35;;;;;;;18.29;84.17;100882.84;4860885;29;20010;-83
2021/07/05 01:06:31;;;;;;;6.18;5.38;;;;;;;18.30;84.39;100879.03;4864635;29;20113;-84
2021/07/05 01:08:57;;;;;;;6.10;5.13;;;;;;;17.99;84.48;100831.44;4865075;29;20051;-84
2021/07/05 01:11:23;;;;;;;8.50;5.40;;;;;;;18.88;84.02;100977.78;4852512;29;20048;-84
2021/07/05 01:13:50;;;;;;;6.88;5.07;;;;;;;18.06;84.05;100842.97;4864184;29;20037;-84
2021/07/05 01:16:15;;;;;;;6.10;5.55;;;;;;;18.05;83.97;100837.78;4864300;29;20030;-84
2021/07/05 01:18:41;;;;;;;5.88;5.30;;;;;;;18.04;84.23;100830.69;4865307;29;20045;-84
2021/07/05 01:21:07;;;;;;;9.57;5.53;;;;;;;18.87;84.30;100953.47;4863035;29;20029;-84
2021/07/05 01:23:34;;;;;;;6.70;5.53;;;;;;;18.01;83.93;100831.16;4865283;29;20042;-84
2021/07/05 01:26:00;;;;;;;8.35;5.65;;;;;;;18.49;84.07;100906.84;4865434;29;20030;-82
2021/07/05 01:28:27;;;;;;;7.95;5.20;;;;;;;18.26;83.90;100866.97;4865030;29;20054;-83
2021/07/05 01:30:53;;;;;;;7.00;5.40;;;;;;;18.34;84.23;100884.78;4863698;29;20021;-84
2021/07/05 01:33:18;;;;;;;6.78;5.80;;;;;;;18.82;84.11;100959.69;4865405;29;20095;-84
2021/07/05 01:35:45;;;;;;;6.25;5.45;;;;;;;17.94;84.03;100828.59;4862647;29;20030;-84
2021/07/05 01:38:18;;;;;;;6.93;5.70;;;;;;;18.26;84.24;100872.44;4865568;29;20089;-84
2021/07/05 01:40:44;;;;;;;8.90;5.88;;;;;;;17.99;84.08;100827.88;4864101;29;20069;-84
2021/07/05 01:43:11;;;;;;;6.68;5.90;;;;;;;18.83;84.41;100952.34;4864471;29;20073;-84
2021/07/05 01:45:37;;;;;;;6.20;5.68;;;;;;;18.69;84.44;100939.03;4864161;29;20021;-83
2021/07/05 01:48:03;;;;;;;6.43;5.80;;;;;;;17.91;84.30;100814.66;4863518;29;20053;-83
2021/07/05 01:50:30;;;;;;;9.07;6.38;;;;;;;18.80;84.50;100947.38;4868708;29;20086;-84
2021/07/05 01:52:56;;;;;;;6.32;5.40;;;;;;;17.91;84.56;100815.50;4867799;29;20072;-83
2021/07/05 01:55:33;;;;;;;8.05;5.78;;;;;;;18.09;84.51;100844.38;4868967;29;20083;-83
2021/07/05 01:58:00;;;;;;;8.32;6.00;;;;;;;18.23;84.49;100872.94;4867640;29;20014;-83
2021/07/05 02:00:27;;;;;;;6.53;5.82;;;;;;;17.83;84.39;100816.75;4868472;29;20054;-84
2021/07/05 02:02:53;;;;;;;7.70;6.00;;;;;;;18.53;84.58;100932.50;4869102;29;20038;-83
2021/07/05 02:05:19;;;;;;;6.32;5.75;;;;;;;18.02;84.66;100839.09;4867768;29;20015;-83
2021/07/05 02:07:47;;;;;;;6.78;6.03;;;;;;;17.88;84.78;100828.78;4851067;29;20056;-84
2021/07/05 02:10:21;;;;;;;6.95;5.95;;;;;;;18.36;84.86;100904.44;4864876;29;20059;-84
2021/07/05 02:12:48;;;;;;;8.02;6.13;;;;;;;17.83;84.94;100824.91;4864662;29;20030;-84
2021/07/05 02:15:15;;;;;;;9.18;6.18;;;;;;;17.92;84.91;100838.13;4855637;29;20030;-84
2021/07/05 02:17:41;;;;;;;6.60;5.90;;;;;;;18.16;85.23;100880.44;4867752;29;20050;-83
2021/07/05 02:20:10;;;;;;;7.35;6.40;;;;;;;17.75;85.31;100822.56;4867831;29;20041;-83
2021/07/05 02:22:39;;;;;;;7.18;6.22;;;;;;;17.74;85.01;100818.19;4852835;29;20098;-84
2021/07/05 02:25:10;;;;;;;8.52;6.43;;;;;;;18.55;85.31;100941.28;4850667;29;20033;-84
2021/07/05 02:27:38;;;;;;;6.95;5.90;;;;;;;17.94;85.28;100844.13;4849020;29;20070;-83
2021/07/05 02:30:07;;;;;;;7.55;6.40;;;;;;;17.66;85.15;100810.44;4861148;29;20063;-84
2021/07/05 02:32:35;;;;;;;8.13;6.57;;;;;;;17.75;85.45;100817.13;4868821;29;20030;-83
2021/07/05 02:35:01;;;;;;;6.88;6.18;;;;;;;17.99;85.43;100852.38;4866770;29;20022;-84
2021/07/05 02:50:23;;;;;;;7.38;6.60;;;;;;;17.66;85.25;100812.34;5125560;24;20095;-84
2021/07/05 02:52:49;;;;;;;8.13;7.00;;;;;;;18.61;85.23;100944.91;4831022;29;20035;-83
2021/07/05 02:55:15;;;;;;;7.28;6.55;;;;;;;18.72;83.70;100902.31;4833385;29;20017;-83
2021/07/05 02:57:44;;;;;;;9.27;6.15;;;;;;;18.50;82.36;100809.56;4849061;29;20082;-84
2021/07/05 03:00:10;;;;;;;7.35;6.00;;;;;;;19.70;81.13;100941.50;4838355;29;20054;-84
2021/07/05 03:02:36;;;;;;;7.28;6.53;;;;;;;19.51;80.14;100882.84;4812916;29;20022;-84
2021/07/05 03:05:04;;;;;;;6.88;6.07;;;;;;;19.27;79.59;100821.44;4813088;29;20091;-84
2021/07/05 03:07:31;;;;;;;7.80;5.85;;;;;;;19.74;79.25;100880.91;4823762;29;20053;-84
2021/07/05 03:09:57;;;;;;;6.68;6.00;;;;;;;19.94;78.24;100889.31;4812336;29;20041;-84
2021/07/05 03:12:23;;;;;;;7.10;5.72;;;;;;;20.02;78.21;100893.44;4816419;29;20019;-84
2021/07/05 03:14:52;;;;;;;8.20;6.45;;;;;;;20.01;77.14;100843.47;4828477;29;20031;-84
2021/07/05 03:17:18;;;;;;;7.03;5.72;;;;;;;20.62;76.12;100895.03;4849244;29;20015;-83
2021/07/05 03:19:47;;;;;;;6.47;5.80;;;;;;;20.57;75.88;100870.41;4848172;29;20037;-83
2021/07/05 03:22:13;;;;;;;7.88;6.03;;;;;;;20.34;75.29;100816.94;4831130;29;20033;-84
2021/07/05 03:24:40;;;;;;;12.05;6.07;;;;;;;20.13;75.18;100783.16;4830267;29;20019;-84
2021/07/05 03:27:06;;;;;;;6.70;5.72;;;;;;;20.44;74.55;100800.59;4829745;29;20096;-82
2021/07/05 03:29:32;;;;;;;7.47;5.90;;;;;;;20.36;75.45;100851.13;4829752;29;20019;-84
2021/07/05 03:32:00;;;;;;;7.93;5.97;;;;;;;20.04;76.25;100850.31;4828560;29;20050;-83
2021/07/05 03:34:26;;;;;;;7.57;6.00;;;;;;;19.73;77.06;100844.56;4830171;29;20019;-84
2021/07/05 03:36:52;;;;;;;7.53;5.45;;;;;;;20.38;77.43;100957.44;4827587;29;20027;-84
2021/07/05 03:39:21;;;;;;;7.97;5.45;;;;;;;20.32;77.17;100953.00;4843180;29;20041;-84
2021/07/05 03:41:47;;;;;;;9.15;5.82;;;;;;;20.40;76.92;100939.69;4836447;29;20029;-84
2021/07/05 03:44:15;;;;;;;7.53;5.70;;;;;;;19.83;76.64;100841.94;4844866;29;20018;-83
2021/07/05 03:46:41;;;;;;;6.63;5.50;;;;;;;19.40;76.48;100789.13;4829780;29;20025;-84
2021/07/05 03:49:07;;;;;;;8.05;5.90;;;;;;;19.83;76.09;100820.09;4829342;29;20059;-84
2021/07/05 03:51:36;;;;;;;7.78;5.63;;;;;;;20.82;75.87;100946.28;4817921;29;20020;-84
2021/07/05 03:54:04;;;;;;;7.80;5.28;;;;;;;20.36;74.87;100855.72;4811340;29;20019;-84
2021/07/05 03:56:30;;;;;;;7.03;5.20;;;;;;;21.43;73.80;100954.84;4826189;29;20041;-82
2021/07/05 03:59:02;;;;;;;6.55;5.43;;;;;;;20.52;73.09;100785.63;4825691;29;20031;-84
2021/07/05 04:01:28;;;;;;;5.90;5.30;;;;;;;22.09;70.36;100877.47;4825234;29;20015;-82
2021/07/05 04:03:54;;;;;;;6.55;5.32;;;;;;;23.29;68.20;100936.25;4826926;29;20065;-83
2021/07/05 04:06:23;;;;;;;5.97;5.32;;;;;;;23.83;66.43;100942.84;4828709;29;20026;-84
2021/07/05 04:08:49;;;;;;;7.47;5.32;;;;;;;23.11;66.77;100854.50;4828774;29;20049;-85
2021/07/05 04:11:18;;;;;;;8.10;5.38;;;;;;;23.26;66.66;100840.72;4829815;29;20023;-82
2021/07/05 04:13:44;;;;;;;8.27;4.80;;;;;;;22.97;66.93;100841.38;4826821;29;20019;-84
2021/07/05 04:16:09;;;;;;;6.78;5.22;;;;;;;23.37;66.49;100850.50;4827964;29;20106;-85
2021/07/05 04:18:35;;;;;;;6.95;5.60;;;;;;;24.53;64.45;100939.84;4828548;29;20042;-82
2021/07/05 04:21:01;;;;;;;8.30;5.13;;;;;;;23.84;63.41;100774.97;4827159;29;20054;-84
2021/07/05 04:23:26;;;;;;;6.18;5.35;;;;;;;24.29;62.64;100814.09;4826037;29;20049;-83
2021/07/05 04:25:54;;;;;;;7.85;6.00;;;;;;;25.28;62.18;100940.19;4820882;29;20030;-82
2021/07/05 04:28:21;;;;;;;6.07;5.40;;;;;;;24.82;60.97;100805.81;4820832;29;20046;-80
2021/07/05 04:30:47;;;;;;;7.80;5.40;;;;;;;25.19;60.73;100820.78;4818319;29;20034;-83
2021/07/05 04:33:12;;;;;;;8.65;5.47;;;;;;;25.31;59.44;100770.75;4825438;29;20023;-82
2021/07/05 04:35:38;;;;;;;7.93;5.43;;;;;;;25.96;58.73;100842.50;4819643;29;20038;-81
2021/07/05 04:38:04;;;;;;;6.15;5.03;;;;;;;25.90;58.85;100834.63;4814199;29;20031;-83
2021/07/05 04:40:33;;;;;;;6.15;5.43;;;;;;;26.51;57.89;100869.41;4804593;29;20047;-80
2021/07/05 04:43:00;;;;;;;7.72;5.05;;;;;;;26.87;57.02;100866.78;4815553;29;20032;-83
2021/07/05 04:45:28;;;;;;;8.80;5.30;;;;;;;27.44;56.54;100942.97;4809008;29;20035;-83
2021/07/05 04:47:55;;;;;;;7.50;5.00;;;;;;;27.54;56.24;100909.59;4819940;29;20031;-82
2021/07/05 04:50:22;;;;;;;8.73;5.07;;;;;;;26.77;56.12;100816.47;4816888;29;20058;-82
2021/07/05 04:52:49;;;;;;;7.65;5.10;;;;;;;27.52;56.55;100939.50;4810050;29;20019;-84
2021/07/05 04:55:17;;;;;;;9.20;5.38;;;;;;;27.12;56.31;100864.63;4799551;29;20026;-84
2021/07/05 04:57:44;;;;;;;13.40;5.00;;;;;;;27.08;56.37;100874.63;4825662;29;20035;-82
2021/07/05 05:00:15;;;;;;;8.27;5.50;;;;;;;26.96;57.16;100877.13;4802916;29;20073;-80
2021/07/05 05:02:41;;;;;;;5.82;5.05;;;;;;;26.64;58.83;100917.47;4812831;29;20038;-80
2021/07/05 05:05:08;;;;;;;10.23;5.32;;;;;;;25.30;60.78;100854.50;4809373;29;20063;-83
2021/07/05 05:07:35;;;;;;;9.63;5.35;;;;;;;24.71;62.33;100831.00;4818142;29;20031;-83
2021/07/05 05:10:02;;;;;;;9.25;5.25;;;;;;;24.56;62.74;100840.25;4810894;29;20031;-83
2021/07/05 05:12:29;;;;;;;9.52;5.15;;;;;;;23.88;64.50;100841.97;4814953;29;20030;-83
2021/07/05 05:14:55;;;;;;;12.05;5.47;;;;;;;24.10;64.20;100846.16;4813457;29;20092;-82
2021/07/05 05:17:24;;;;;;;11.30;5.82;;;;;;;23.68;64.42;100806.41;4813488;29;20043;-81
2021/07/05 05:19:50;;;;;;;7.65;5.15;;;;;;;23.71;65.00;100843.47;4811779;29;20031;-82
2021/07/05 05:22:16;;;;;;;10.48;5.40;;;;;;;23.36;65.40;100802.19;4829397;29;20011;-83
2021/07/05 05:24:42;;;;;;;10.23;5.55;;;;;;;23.65;65.54;100881.94;4820862;29;20050;-84
2021/07/05 05:27:08;;;;;;;8.60;5.35;;;;;;;22.49;66.13;100725.81;4823273;29;20046;-83
2021/07/05 05:29:33;;;;;;;6.88;5.93;;;;;;;22.43;65.73;100731.59;4829659;29;20019;-85
2021/07/05 05:37:09;;;;;;;8.25;5.43;;;;;;;22.68;66.78;100805.56;5068828;24;20369;-79
2021/07/05 05:39:35;;;;;;;9.48;5.95;;;;;;;23.21;66.96;100898.38;4823962;29;20049;-79
2021/07/05 05:42:00;;;;;;;6.78;5.30;;;;;;;22.97;67.10;100888.03;4819886;29;20041;-79
2021/07/05 05:44:25;;;;;;;9.82;6.00;;;;;;;23.01;67.38;100893.78;4818881;29;20118;-79
2021/07/05 05:46:51;;;;;;;7.18;5.43;;;;;;;22.94;67.41;100872.13;4806877;29;20049;-78
2021/07/05 05:49:16;;;;;;;7.28;5.10;;;;;;;22.98;67.20;100883.41;4821605;29;20030;-78
2021/07/05 05:51:42;;;;;;;6.30;5.70;;;;;;;23.15;67.11;100889.34;4817058;29;20062;-78
2021/07/05 05:54:10;;;;;;;6.80;5.00;;;;;;;23.22;66.98;100891.81;4801196;29;20369;-79
2021/07/05 05:56:38;;;;;;;8.50;5.50;;;;;;;23.36;66.56;100878.28;4811938;29;20697;-79
2021/07/05 05:59:06;;;;;;;6.32;5.45;;;;;;;22.90;67.48;100878.44;4817050;29;20121;-78
2021/07/05 06:01:35;;;;;;;6.10;4.93;;;;;;;23.01;67.53;100879.25;4816013;29;20034;-78
2021/07/05 06:04:01;;;;;;;6.78;4.90;;;;;;;22.81;67.93;100860.91;4818750;29;20031;-78
2021/07/05 06:06:27;;;;;;;9.70;5.10;;;;;;;22.95;67.57;100873.78;4821905;29;20470;-78
2021/07/05 06:08:53;;;;;;;6.75;5.38;;;;;;;22.55;67.58;100783.38;4819454;29;20041;-78
2021/07/05 06:11:19;;;;;;;8.73;4.95;;;;;;;23.20;67.06;100861.06;4821037;29;20071;-78
2021/07/05 06:13:45;;;;;;;6.07;4.90;;;;;;;23.52;66.37;100865.28;4820815;29;20023;-78
2021/07/05 06:16:11;;;;;;;8.95;5.03;;;;;;;23.68;65.67;100864.09;4807960;29;20069;-79
2021/07/05 06:18:36;;;;;;;6.57;4.63;;;;;;;23.55;65.82;100867.47;4825725;29;20062;-78
2021/07/05 06:21:03;;;;;;;6.93;4.78;;;;;;;23.63;64.11;100845.69;4825157;29;20034;-78
2021/07/05 06:23:28;;;;;;;11.52;5.13;;;;;;;23.71;64.31;100852.56;4825473;29;20034;-78
2021/07/05 06:25:56;;;;;;;8.82;4.75;;;;;;;23.79;64.54;100843.69;4824488;29;20435;-78
2021/07/05 06:28:23;;;;;;;8.13;4.85;;;;;;;24.05;63.86;100846.22;4824297;29;20034;-78
2021/07/05 06:30:50;;;;;;;7.10;4.30;;;;;;;23.81;63.87;100854.41;4824531;29;20041;-78
2021/07/05 06:33:17;;;;;;;5.22;4.40;;;;;;;24.01;62.72;100856.16;4825960;29;20639;-78
2021/07/05 06:35:44;;;;;;;7.40;4.63;;;;;;;24.07;62.16;100860.50;4804262;29;20035;-78
2021/07/05 06:38:12;;;;;;;7.13;4.95;;;;;;;23.67;62.82;100851.44;4808704;29;20050;-78
2021/07/05 06:40:37;;;;;;;9.00;4.43;;;;;;;23.62;62.46;100840.50;4809561;29;20069;-78
2021/07/05 06:43:04;;;;;;;5.22;4.20;;;;;;;23.75;62.25;100852.78;4827404;29;20470;-78
2021/07/05 06:45:30;;;;;;;8.88;4.35;;;;;;;23.58;62.12;100844.91;4808802;29;20053;-78
2021/07/05 06:47:56;;;;;;;5.93;4.10;;;;;;;23.10;62.63;100809.78;4827386;29;20069;-78
2021/07/05 06:50:22;;;;;;;5.55;4.55;;;;;;;23.70;62.39;100858.31;4826666;29;20058;-78
2021/07/05 06:52:48;;;;;;;5.47;4.75;;;;;;;23.89;62.01;100827.09;4824514;29;20080;-79
2021/07/05 06:55:14;;;;;;;6.90;4.18;;;;;;;24.11;62.31;100847.81;4826772;29;20493;-78
2021/07/05 06:57:41;;;;;;;6.18;4.65;;;;;;;24.05;61.78;100818.75;4824973;29;20064;-78
2021/07/05 07:00:12;;;;;;;7.13;4.32;;;;;;;23.87;61.76;100812.00;4825056;29;20031;-78
2021/07/05 07:02:39;;;;;;;5.60;4.45;;;;;;;24.03;61.18;100819.00;4819893;29;20438;-78
2021/07/05 07:05:10;;;;;;;6.00;4.53;;;;;;;23.40;62.54;100847.22;4809770;29;20157;-78
2021/07/05 07:07:37;;;;;;;8.60;4.68;;;;;;;23.33;62.81;100843.16;4811323;29;20034;-78
2021/07/05 07:10:04;;;;;;;7.82;4.60;;;;;;;23.23;63.07;100838.53;4826749;29;20034;-78
2021/07/05 07:12:29;;;;;;;9.95;4.72;;;;;;;23.17;62.65;100820.44;4824579;29;20046;-78
2021/07/05 07:14:55;;;;;;;7.65;4.75;;;;;;;23.23;63.20;100835.78;4824756;29;20366;-78
2021/07/05 07:17:25;;;;;;;7.25;4.70;;;;;;;23.15;63.10;100826.22;4811506;29;20045;-78
2021/07/05 07:19:51;;;;;;;8.10;4.30;;;;;;;23.40;62.85;100838.16;4824859;29;20452;-78
2021/07/05 07:22:16;;;;;;;6.45;4.60;;;;;;;23.07;63.32;100815.81;4826010;29;20206;-78
2021/07/05 07:24:42;;;;;;;5.78;4.60;;;;;;;23.02;63.35;100826.03;4826836;29;20034;-78
2021/07/05 07:27:07;;;;;;;8.90;4.32;;;;;;;22.62;63.32;100742.78;4825118;29;20070;-78
2021/07/05 07:29:33;;;;;;;8.02;4.55;;;;;;;23.39;62.75;100825.53;4830229;29;20102;-79
2021/07/05 07:31:58;;;;;;;7.30;4.13;;;;;;;22.94;62.40;100784.31;4833027;29;20360;-79
2021/07/05 07:34:24;;;;;;;5.03;4.30;;;;;;;22.91;63.10;100823.31;4802380;29;20034;-79
2021/07/05 07:36:49;;;;;;;6.63;4.70;;;;;;;22.81;63.19;100806.84;4831454;29;20089;-78
2021/07/05 07:39:18;;;;;;;7.75;4.50;;;;;;;23.01;63.00;100821.63;4830658;29;20073;-79
2021/07/05 07:41:44;;;;;;;6.07;4.60;;;;;;;23.28;62.00;100815.69;4818073;29;20053;-79
2021/07/05 07:44:09;;;;;;;4.75;4.28;;;;;;;23.21;61.87;100810.53;4801134;29;20331;-78
2021/07/05 07:46:35;;;;;;;5.63;4.72;;;;;;;23.28;61.68;100816.53;4826282;29;20095;-78
2021/07/05 07:49:01;;;;;;;5.18;4.20;;;;;;;23.37;61.39;100814.81;4807977;29;20065;-78
2021/07/05 07:51:26;;;;;;;4.65;3.88;;;;;;;23.09;61.46;100802.66;4809628;29;20050;-78
2021/07/05 07:53:52;;;;;;;5.93;4.38;;;;;;;23.09;61.57;100812.81;4809173;29;20031;-78
2021/07/05 07:56:18;;;;;;;7.60;4.40;;;;;;;23.09;61.88;100813.63;4825758;29;20034;-78
2021/07/05 07:58:43;;;;;;;7.95;4.80;;;;;;;23.12;61.84;100817.75;4822895;29;20026;-78
2021/07/05 08:01:09;;;;;;;6.78;4.60;;;;;;;22.97;62.39;100794.75;4820959;29;20041;-78
2021/07/05 08:03:35;;;;;;;6.88;4.60;;;;;;;23.30;61.70;100803.34;4824232;29;20034;-78
2021/07/05 08:06:01;;;;;;;7.13;4.75;;;;;;;23.11;61.61;100807.84;4824038;29;20043;-78
2021/07/05 08:08:26;;;;;;;5.70;4.00;;;;;;;23.13;61.74;100806.47;4825269;29;20129;-78
2021/07/05 08:10:52;;;;;;;6.38;4.63;;;;;;;23.13;61.57;100790.00;4823758;29;20117;-78
2021/07/05 08:13:17;;;;;;;6.90;4.63;;;;;;;23.30;61.19;100797.84;4823413;29;20053;-78
2021/07/05 08:15:43;;;;;;;5.38;4.28;;;;;;;23.51;60.68;100797.69;4822634;29;20042;-78
2021/07/05 08:18:10;;;;;;;5.97;4.38;;;;;;;23.94;59.88;100784.19;4824201;29;20129;-78
2021/07/05 08:20:36;;;;;;;6.03;4.05;;;;;;;24.19;59.71;100783.94;4807878;29;20038;-78
2021/07/05 08:23:01;;;;;;;9.13;4.47;;;;;;;24.14;59.83;100789.53;4823747;29;20050;-78
2021/07/05 08:25:27;;;;;;;6.32;4.22;;;;;;;24.36;59.14;100787.06;4809334;29;20034;-78
2021/07/05 08:27:54;;;;;;;8.45;4.35;;;;;;;24.35;59.05;100801.94;4809246;29;20129;-79
2021/07/05 08:30:21;;;;;;;5.72;4.63;;;;;;;24.72;58.75;100783.94;4823592;29;20031;-78
2021/07/05 08:32:51;;;;;;;5.95;4.53;;;;;;;24.91;58.22;100783.16;4824390;29;20054;-78
2021/07/05 08:35:18;;;;;;;5.63;4.47;;;;;;;24.85;57.92;100785.13;4822513;29;20115;-78
2021/07/05 08:37:44;;;;;;;4.93;4.18;;;;;;;24.39;57.92;100783.72;4822288;29;20054;-78
2021/07/05 08:40:10;;;;;;;8.65;4.28;;;;;;;24.06;58.68;100768.16;4824446;29;20041;-78
2021/07/05 08:42:36;;;;;;;9.30;4.50;;;;;;;23.66;59.38;100761.88;4822724;29;20377;-78
2021/07/05 08:45:07;;;;;;;5.57;4.10;;;;;;;23.86;59.48;100780.97;4824467;29;20116;-78
2021/07/05 08:47:35;;;;;;;5.55;4.30;;;;;;;24.12;59.38;100780.72;4821223;29;20023;-78
2021/07/05 08:50:03;;;;;;;7.13;4.30;;;;;;;24.52;58.89;100778.69;4821244;29;20041;-78
2021/07/05 08:52:32;;;;;;;5.00;4.03;;;;;;;24.84;57.92;100756.00;4823253;29;20035;-78
2021/07/05 08:54:58;;;;;;;5.97;4.30;;;;;;;24.98;57.29;100770.66;4823338;29;20030;-78
2021/07/05 08:57:40;;;;;;;7.82;4.18;;;;;;;25.04;57.12;100750.19;4821860;29;20102;-78
2021/07/05 09:00:11;;;;;;;6.07;3.75;;;;;;;25.59;56.61;100752.41;4820988;29;20489;-78
2021/07/05 09:02:36;;;;;;;5.97;3.50;;;;;;;25.90;56.11;100757.44;4819036;29;20061;-78
2021/07/05 09:05:03;;;;;;;4.30;3.90;;;;;;;26.04;55.96;100760.22;4821231;29;20073;-78
2021/07/05 09:07:29;;;;;;;6.78;4.43;;;;;;;25.85;55.75;100755.56;4793893;29;20026;-78
2021/07/05 09:09:58;;;;;;;6.95;3.95;;;;;;;25.85;55.35;100754.75;4806163;29;20034;-78
2021/07/05 09:12:24;;;;;;;4.43;4.03;;;;;;;25.90;55.05;100754.66;4814613;29;20030;-78
2021/07/05 09:15:09;;;;;;;10.32;4.35;;;;;;;25.58;55.63;100755.47;4805844;29;20472;-79
2021/07/05 09:17:37;;;;;;;6.00;4.22;;;;;;;25.69;55.63;100749.47;4817531;29;20035;-78
2021/07/05 09:20:19;;;;;;;5.63;4.38;;;;;;;25.91;54.93;100735.06;4811920;29;20117;-78
2021/07/05 09:23:10;;;;;;;7.97;4.40;;;;;;;25.99;53.97;100745.41;4806757;29;20033;-78
2021/07/05 09:25:38;;;;;;;5.70;4.30;;;;;;;26.20;54.13;100747.75;4808316;29;20031;-78
2021/07/05 09:28:05;;;;;;;3.90;3.40;;;;;;;26.26;53.64;100730.00;4804591;29;20061;-78
2021/07/05 09:30:40;;;;;;;7.88;3.97;;;;;;;26.67;52.20;100738.25;4813049;29;20030;-78
2021/07/05 09:33:24;;;;;;;7.95;3.53;;;;;;;26.94;51.10;100733.81;4824501;29;20027;-78
2021/07/05 09:35:55;;;;;;;3.97;3.35;;;;;;;26.80;51.21;100706.25;4822492;29;20030;-78
2021/07/05 09:38:36;;;;;;;4.03;3.30;;;;;;;26.80;49.96;100738.56;4824456;29;20133;-78
2021/07/05 09:41:21;;;;;;;7.53;3.45;;;;;;;27.10;49.72;100737.03;4820864;29;20462;-78
2021/07/05 09:43:53;;;;;;;4.57;3.70;;;;;;;27.00;50.95;100727.06;4823721;29;20450;-78
2021/07/05 09:46:41;;;;;;;7.03;3.85;;;;;;;27.07;49.77;100719.16;4821068;29;20070;-78
2021/07/05 09:49:17;;;;;;;4.18;3.45;;;;;;;26.39;49.57;100726.41;4823443;29;20038;-78
2021/07/05 09:52:12;;;;;;;6.88;3.58;;;;;;;25.62;50.83;100727.00;4822108;29;20049;-78
2021/07/05 09:54:41;;;;;;;7.05;3.78;;;;;;;25.22;52.87;100707.25;4822889;29;20562;-78
2021/07/05 09:57:25;;;;;;;4.28;3.75;;;;;;;25.11;53.60;100730.56;4822984;29;20074;-79
2021/07/05 09:59:56;;;;;;;4.97;3.78;;;;;;;24.85;53.48;100722.66;4819825;29;20084;-78
2021/07/05 10:02:21;;;;;;;3.95;3.55;;;;;;;25.11;53.23;100727.78;4823786;29;20030;-78
2021/07/05 10:04:48;;;;;;;5.40;3.60;;;;;;;25.14;53.58;100720.91;4822043;29;20498;-78
2021/07/05 10:07:14;;;;;;;5.30;3.70;;;;;;;25.20;53.56;100727.94;4823128;29;20030;-78
2021/07/05 10:09:47;;;;;;;6.82;3.92;;;;;;;25.48;53.44;100728.91;4823735;29;20121;-78
2021/07/05 10:12:17;;;;;;;6.15;3.63;;;;;;;25.43;52.94;100727.06;4825620;29;20361;-78
2021/07/05 10:14:50;;;;;;;7.30;3.60;;;;;;;25.24;53.16;100707.78;4825054;29;20472;-78
2021/07/05 10:17:16;;;;;;;4.63;4.13;;;;;;;25.37;53.14;100708.97;4825437;29;20126;-78
2021/07/05 10:19:42;;;;;;;7.25;3.85;;;;;;;25.45;53.60;100718.47;4795550;29;20207;-78
2021/07/05 10:22:11;;;;;;;5.53;3.67;;;;;;;25.41;53.79;100695.41;4807469;29;20039;-78
2021/07/05 10:24:37;;;;;;;4.97;3.67;;;;;;;25.83;52.94;100704.59;4822683;29;20030;-78
2021/07/05 10:27:05;;;;;;;5.78;3.88;;;;;;;25.94;52.91;100698.59;4818244;29;20403;-78
2021/07/05 10:29:35;;;;;;;8.27;3.60;;;;;;;26.24;52.88;100701.88;4809855;29;20027;-79
2021/07/05 10:32:01;;;;;;;5.97;3.60;;;;;;;26.53;52.52;100693.31;4824768;29;20045;-78
2021/07/05 10:34:27;;;;;;;6.22;4.05;;;;;;;26.83;50.96;100699.28;4825360;29;20037;-79
2021/07/05 10:36:54;;;;;;;5.97;3.80;;;;;;;26.58;51.92;100689.63;4806223;29;20158;-78
2021/07/05 10:39:22;;;;;;;5.53;3.83;;;;;;;26.87;51.60;100673.50;4825477;29;20030;-78
2021/07/05 10:41:47;;;;;;;4.80;3.58;;;;;;;27.15;51.47;100698.28;4825230;29;20038;-78
2021/07/05 10:44:19;;;;;;;4.18;3.45;;;;;;;27.05;51.51;100688.28;4825256;29;20108;-79
2021/07/05 10:46:52;;;;;;;5.90;3.55;;;;;;;27.21;51.52;100685.16;4824625;29;20058;-78
2021/07/05 10:49:33;;;;;;;6.15;4.05;;;;;;;26.83;51.24;100682.72;4825673;29;20036;-79
2021/07/05 10:52:04;;;;;;;5.28;4.03;;;;;;;26.41;52.07;100670.91;4824438;29;20109;-78
2021/07/05 10:54:53;;;;;;;5.07;3.90;;;;;;;26.04;51.56;100678.28;4824389;29;20365;-78
2021/07/05 10:57:31;;;;;;;5.68;3.72;;;;;;;26.14;51.69;100663.50;4823633;29;20026;-79
2021/07/05 11:00:07;;;;;;;5.32;3.63;;;;;;;26.00;51.51;100675.34;4825818;29;20452;-79
2021/07/05 11:02:56;;;;;;;3.80;3.50;;;;;;;26.00;51.40;100674.53;4822854;29;20368;-79
2021/07/05 11:05:32;;;;;;;9.18;3.78;;;;;;;25.58;52.31;100665.34;4826523;29;20377;-78
2021/07/05 11:08:26;;;;;;;5.80;3.65;;;;;;;25.56;51.54;100659.31;4824125;29;20029;-78
2021/07/05 11:11:11;;;;;;;5.43;4.20;;;;;;;26.38;53.85;100664.06;4827317;29;20412;-78
2021/07/05 11:13:38;;;;;;;9.00;5.40;;;;;;;26.94;53.47;100650.97;4826151;29;20057;-78
2021/07/05 11:16:04;;;;;;;10.32;4.97;;;;;;;27.05;54.03;100655.13;4822911;29;20034;-79
2021/07/05 11:18:35;;;;;;;5.35;4.50;;;;;;;26.82;54.44;100661.75;4825600;29;20038;-78
2021/07/05 11:21:02;;;;;;;6.57;4.93;;;;;;;26.89;54.99;100662.97;4825046;29;20050;-78
2021/07/05 11:23:57;;;;;;;9.50;4.70;;;;;;;27.09;54.38;100656.13;4824960;29;20030;-78
2021/07/05 11:26:25;;;;;;;6.32;4.80;;;;;;;27.37;54.52;100656.84;4825636;29;20031;-78
2021/07/05 11:29:16;;;;;;;7.22;4.60;;;;;;;27.88;53.66;100657.44;4824629;29;20307;-78
2021/07/05 11:31:55;;;;;;;6.75;5.20;;;;;;;27.71;53.88;100660.91;4824168;29;20349;-78
2021/07/05 11:34:32;;;;;;;7.80;5.40;;;;;;;27.49;54.75;100660.97;4824785;29;20428;-78
2021/07/05 11:37:10;;;;;;;7.93;4.72;;;;;;;27.27;54.86;100659.03;4824465;29;20122;-78
2021/07/05 11:39:37;;;;;;;5.85;4.97;;;;;;;27.13;54.38;100650.84;4828448;29;20044;-79
2021/07/05 11:42:03;;;;;;;6.25;5.22;;;;;;;27.04;54.70;100655.44;4832136;29;20442;-78
2021/07/05 11:44:52;;;;;;;5.32;4.80;;;;;;;26.79;55.37;100646.66;4832245;29;20034;-79
2021/07/05 11:47:36;;;;;;;7.82;5.40;;;;;;;26.69;56.02;100647.69;4828405;29;20060;-79
2021/07/05 11:50:24;;;;;;;8.75;5.43;;;;;;;26.58;56.82;100643.53;4827085;29;20086;-78
2021/07/05 11:52:58;;;;;;;6.05;5.45;;;;;;;26.34;57.38;100634.66;4825325;29;20033;-79